sensor_id;sensor_type;location;lat;lon;timestamp;P1;durP1;ratioP1;P2;durP2;ratioP2
22094;SDS011;24083;55.670;37.568;2022-09-09T00:07:55;2.28;;;1.05;;
22094;SDS011;24083;55.670;37.568;2022-09-09T00:21:58;1.75;;;0.73;;
22094;SDS011;24083;55.670;37.568;2022-09-09T00:24:28;2.60;;;0.70;;
22094;SDS011;24083;55.670;37.568;2022-09-09T00:39:27;1.15;;;1.02;;
22094;SDS011;24083;55.670;37.568;2022-09-09T00:45:36;1.60;;;1.30;;
22094;SDS011;24083;55.670;37.568;2022-09-09T00:57:00;1.73;;;1.38;;
22094;SDS011;24083;55.670;37.568;2022-09-09T01:13:58;1.88;;;1.30;;
22094;SDS011;24083;55.670;37.568;2022-09-09T01:19:33;3.55;;;1.40;;
22094;SDS011;24083;55.670;37.568;2022-09-09T01:22:09;1.55;;;1.30;;
22094;SDS011;24083;55.670;37.568;2022-09-09T01:24:40;2.10;;;1.35;;
22094;SDS011;24083;55.670;37.568;2022-09-09T01:28:05;2.83;;;1.50;;
22094;SDS011;24083;55.670;37.568;2022-09-09T01:30:38;2.25;;;1.60;;
22094;SDS011;24083;55.670;37.568;2022-09-09T01:33:07;3.15;;;1.27;;
22094;SDS011;24083;55.670;37.568;2022-09-09T01:38:02;4.35;;;1.60;;
22094;SDS011;24083;55.670;37.568;2022-09-09T01:50:06;3.38;;;1.70;;
22094;SDS011;24083;55.670;37.568;2022-09-09T01:55:08;4.72;;;2.10;;
22094;SDS011;24083;55.670;37.568;2022-09-09T01:57:50;4.32;;;2.05;;
22094;SDS011;24083;55.670;37.568;2022-09-09T02:00:18;4.28;;;2.13;;
22094;SDS011;24083;55.670;37.568;2022-09-09T02:05:49;4.40;;;1.95;;
22094;SDS011;24083;55.670;37.568;2022-09-09T02:11:17;6.32;;;2.00;;
22094;SDS011;24083;55.670;37.568;2022-09-09T02:17:25;2.95;;;2.10;;
22094;SDS011;24083;55.670;37.568;2022-09-09T02:20:10;4.40;;;2.40;;
22094;SDS011;24083;55.670;37.568;2022-09-09T02:22:58;9.70;;;2.50;;
22094;SDS011;24083;55.670;37.568;2022-09-09T02:25:38;7.95;;;2.35;;
22094;SDS011;24083;55.670;37.568;2022-09-09T02:28:28;2.45;;;1.75;;
22094;SDS011;24083;55.670;37.568;2022-09-09T02:30:57;4.32;;;2.40;;
22094;SDS011;24083;55.670;37.568;2022-09-09T02:33:33;3.55;;;2.40;;
22094;SDS011;24083;55.670;37.568;2022-09-09T02:35:59;3.10;;;2.20;;
22094;SDS011;24083;55.670;37.568;2022-09-09T02:38:32;6.97;;;2.10;;
22094;SDS011;24083;55.670;37.568;2022-09-09T02:41:07;5.75;;;2.20;;
22094;SDS011;24083;55.670;37.568;2022-09-09T02:52:21;6.43;;;2.35;;
22094;SDS011;24083;55.670;37.568;2022-09-09T02:54:54;6.50;;;2.20;;
22094;SDS011;24083;55.670;37.568;2022-09-09T02:57:26;2.85;;;2.08;;
22094;SDS011;24083;55.670;37.568;2022-09-09T02:59:56;2.67;;;2.20;;
22094;SDS011;24083;55.670;37.568;2022-09-09T03:02:30;3.45;;;2.15;;
22094;SDS011;24083;55.670;37.568;2022-09-09T03:05:02;2.97;;;2.05;;
22094;SDS011;24083;55.670;37.568;2022-09-09T03:07:30;5.45;;;2.28;;
22094;SDS011;24083;55.670;37.568;2022-09-09T03:10:13;5.07;;;2.30;;
22094;SDS011;24083;55.670;37.568;2022-09-09T03:12:40;5.88;;;2.28;;
22094;SDS011;24083;55.670;37.568;2022-09-09T03:15:05;6.20;;;2.28;;
22094;SDS011;24083;55.670;37.568;2022-09-09T03:17:34;4.50;;;2.50;;
22094;SDS011;24083;55.670;37.568;2022-09-09T03:23:20;4.78;;;2.60;;
22094;SDS011;24083;55.670;37.568;2022-09-09T03:25:49;5.00;;;2.03;;
22094;SDS011;24083;55.670;37.568;2022-09-09T03:28:19;5.45;;;2.20;;
22094;SDS011;24083;55.670;37.568;2022-09-09T03:33:18;2.97;;;2.15;;
22094;SDS011;24083;55.670;37.568;2022-09-09T03:35:56;3.17;;;2.40;;
22094;SDS011;24083;55.670;37.568;2022-09-09T03:38:24;2.33;;;2.13;;
22094;SDS011;24083;55.670;37.568;2022-09-09T03:40:59;3.38;;;2.20;;
22094;SDS011;24083;55.670;37.568;2022-09-09T03:46:45;4.72;;;2.60;;
22094;SDS011;24083;55.670;37.568;2022-09-09T03:55:44;7.22;;;2.25;;
22094;SDS011;24083;55.670;37.568;2022-09-09T03:58:16;3.42;;;2.50;;
22094;SDS011;24083;55.670;37.568;2022-09-09T04:03:19;4.18;;;2.40;;
22094;SDS011;24083;55.670;37.568;2022-09-09T04:06:05;5.15;;;2.55;;
22094;SDS011;24083;55.670;37.568;2022-09-09T04:08:38;5.00;;;2.60;;
22094;SDS011;24083;55.670;37.568;2022-09-09T04:13:39;4.13;;;2.30;;
22094;SDS011;24083;55.670;37.568;2022-09-09T04:16:13;2.17;;;1.20;;
22094;SDS011;24083;55.670;37.568;2022-09-09T04:18:41;5.70;;;2.42;;
22094;SDS011;24083;55.670;37.568;2022-09-09T04:21:08;5.18;;;2.65;;
22094;SDS011;24083;55.670;37.568;2022-09-09T04:26:17;3.78;;;2.22;;
22094;SDS011;24083;55.670;37.568;2022-09-09T04:28:45;4.43;;;2.45;;
22094;SDS011;24083;55.670;37.568;2022-09-09T04:31:17;3.78;;;2.15;;
22094;SDS011;24083;55.670;37.568;2022-09-09T04:33:50;5.82;;;2.30;;
22094;SDS011;24083;55.670;37.568;2022-09-09T04:39:05;5.00;;;2.40;;
22094;SDS011;24083;55.670;37.568;2022-09-09T04:41:36;3.35;;;2.42;;
22094;SDS011;24083;55.670;37.568;2022-09-09T04:47:12;3.63;;;2.10;;
22094;SDS011;24083;55.670;37.568;2022-09-09T04:55:29;5.82;;;2.55;;
22094;SDS011;24083;55.670;37.568;2022-09-09T04:58:15;6.88;;;2.30;;
22094;SDS011;24083;55.670;37.568;2022-09-09T05:06:57;5.18;;;2.20;;
22094;SDS011;24083;55.670;37.568;2022-09-09T05:09:27;5.40;;;2.40;;
22094;SDS011;24083;55.670;37.568;2022-09-09T05:11:54;6.30;;;2.42;;
22094;SDS011;24083;55.670;37.568;2022-09-09T05:18:09;5.00;;;1.90;;
22094;SDS011;24083;55.670;37.568;2022-09-09T05:20:36;5.22;;;1.30;;
22094;SDS011;24083;55.670;37.568;2022-09-09T05:23:03;2.80;;;2.05;;
22094;SDS011;24083;55.670;37.568;2022-09-09T05:25:31;6.47;;;2.00;;
22094;SDS011;24083;55.670;37.568;2022-09-09T05:27:58;6.78;;;2.10;;
22094;SDS011;24083;55.670;37.568;2022-09-09T05:30:26;6.43;;;2.05;;
22094;SDS011;24083;55.670;37.568;2022-09-09T05:32:52;3.67;;;1.38;;
22094;SDS011;24083;55.670;37.568;2022-09-09T05:35:22;9.02;;;1.85;;
22094;SDS011;24083;55.670;37.568;2022-09-09T05:37:48;2.65;;;1.70;;
22094;SDS011;24083;55.670;37.568;2022-09-09T05:40:15;2.40;;;1.52;;
22094;SDS011;24083;55.670;37.568;2022-09-09T05:42:43;3.97;;;1.60;;
22094;SDS011;24083;55.670;37.568;2022-09-09T05:45:10;2.53;;;1.67;;
22094;SDS011;24083;55.670;37.568;2022-09-09T05:47:38;4.18;;;1.30;;
22094;SDS011;24083;55.670;37.568;2022-09-09T05:50:08;3.97;;;1.40;;
22094;SDS011;24083;55.670;37.568;2022-09-09T05:52:35;4.38;;;1.20;;
22094;SDS011;24083;55.670;37.568;2022-09-09T05:55:02;3.13;;;1.30;;
22094;SDS011;24083;55.670;37.568;2022-09-09T06:00:00;2.90;;;1.55;;
22094;SDS011;24083;55.670;37.568;2022-09-09T06:05:00;5.85;;;1.40;;
22094;SDS011;24083;55.670;37.568;2022-09-09T06:07:28;2.83;;;1.15;;
22094;SDS011;24083;55.670;37.568;2022-09-09T06:09:55;5.72;;;1.20;;
22094;SDS011;24083;55.670;37.568;2022-09-09T06:12:21;3.90;;;0.80;;
22094;SDS011;24083;55.670;37.568;2022-09-09T06:17:55;1.85;;;1.20;;
22094;SDS011;24083;55.670;37.568;2022-09-09T06:20:21;1.83;;;1.05;;
22094;SDS011;24083;55.670;37.568;2022-09-09T06:22:49;2.97;;;0.60;;
22094;SDS011;24083;55.670;37.568;2022-09-09T06:25:16;3.47;;;0.93;;
22094;SDS011;24083;55.670;37.568;2022-09-09T07:24:33;4.43;;;0.80;;
22094;SDS011;24083;55.670;37.568;2022-09-09T14:00:05;4.90;;;0.80;;
22094;SDS011;24083;55.670;37.568;2022-09-09T14:50:49;3.00;;;1.10;;
22094;SDS011;24083;55.670;37.568;2022-09-09T14:53:39;4.47;;;1.15;;
22094;SDS011;24083;55.670;37.568;2022-09-09T14:59:55;6.32;;;1.77;;
22094;SDS011;24083;55.670;37.568;2022-09-09T15:05:14;4.53;;;1.60;;
22094;SDS011;24083;55.670;37.568;2022-09-09T15:21:57;3.75;;;1.42;;
22094;SDS011;24083;55.670;37.568;2022-09-09T15:24:40;5.60;;;1.50;;
22094;SDS011;24083;55.670;37.568;2022-09-09T15:27:14;1.60;;;1.10;;
22094;SDS011;24083;55.670;37.568;2022-09-09T15:29:40;2.50;;;1.10;;
22094;SDS011;24083;55.670;37.568;2022-09-09T15:32:18;2.13;;;1.10;;
22094;SDS011;24083;55.670;37.568;2022-09-09T15:34:46;2.75;;;1.30;;
22094;SDS011;24083;55.670;37.568;2022-09-09T15:37:20;5.32;;;1.50;;
22094;SDS011;24083;55.670;37.568;2022-09-09T15:39:48;4.55;;;1.35;;
22094;SDS011;24083;55.670;37.568;2022-09-09T15:42:17;3.85;;;1.20;;
22094;SDS011;24083;55.670;37.568;2022-09-09T15:44:45;1.88;;;1.20;;
22094;SDS011;24083;55.670;37.568;2022-09-09T15:47:20;2.05;;;1.30;;
22094;SDS011;24083;55.670;37.568;2022-09-09T16:07:17;2.55;;;1.38;;
22094;SDS011;24083;55.670;37.568;2022-09-09T16:09:53;4.43;;;1.50;;
22094;SDS011;24083;55.670;37.568;2022-09-09T16:37:32;2.42;;;1.30;;
22094;SDS011;24083;55.670;37.568;2022-09-09T16:40:05;5.05;;;1.50;;
22094;SDS011;24083;55.670;37.568;2022-09-09T16:42:35;2.58;;;1.40;;
22094;SDS011;24083;55.670;37.568;2022-09-09T16:45:21;5.57;;;1.98;;
22094;SDS011;24083;55.670;37.568;2022-09-09T16:51:08;5.85;;;1.70;;
22094;SDS011;24083;55.670;37.568;2022-09-09T16:53:42;7.90;;;2.15;;
22094;SDS011;24083;55.670;37.568;2022-09-09T16:56:14;3.97;;;1.60;;
22094;SDS011;24083;55.670;37.568;2022-09-09T16:58:57;2.65;;;1.38;;
22094;SDS011;24083;55.670;37.568;2022-09-09T17:07:44;6.72;;;1.90;;
22094;SDS011;24083;55.670;37.568;2022-09-09T17:13:02;8.95;;;2.20;;
22094;SDS011;24083;55.670;37.568;2022-09-09T17:19:35;5.30;;;2.40;;
22094;SDS011;24083;55.670;37.568;2022-09-09T17:22:02;5.32;;;2.00;;
22094;SDS011;24083;55.670;37.568;2022-09-09T17:27:37;5.68;;;2.20;;
22094;SDS011;24083;55.670;37.568;2022-09-09T17:30:05;3.65;;;1.67;;
22094;SDS011;24083;55.670;37.568;2022-09-09T17:32:34;7.50;;;1.80;;
22094;SDS011;24083;55.670;37.568;2022-09-09T17:49:49;4.07;;;1.80;;
22094;SDS011;24083;55.670;37.568;2022-09-09T17:52:15;10.02;;;1.80;;
22094;SDS011;24083;55.670;37.568;2022-09-09T17:54:43;9.48;;;2.60;;
22094;SDS011;24083;55.670;37.568;2022-09-09T17:57:15;19.05;;;3.10;;
22094;SDS011;24083;55.670;37.568;2022-09-09T17:59:46;7.03;;;2.70;;
22094;SDS011;24083;55.670;37.568;2022-09-09T18:02:18;6.22;;;3.47;;
22094;SDS011;24083;55.670;37.568;2022-09-09T18:07:41;13.82;;;2.70;;
22094;SDS011;24083;55.670;37.568;2022-09-09T18:10:06;7.53;;;2.63;;
22094;SDS011;24083;55.670;37.568;2022-09-09T18:12:34;8.88;;;2.70;;
22094;SDS011;24083;55.670;37.568;2022-09-09T18:17:48;5.18;;;2.60;;
22094;SDS011;24083;55.670;37.568;2022-09-09T18:23:04;7.20;;;2.83;;
22094;SDS011;24083;55.670;37.568;2022-09-09T18:31:42;8.13;;;2.63;;
22094;SDS011;24083;55.670;37.568;2022-09-09T18:37:11;7.20;;;2.92;;
22094;SDS011;24083;55.670;37.568;2022-09-09T18:39:43;9.05;;;2.78;;
22094;SDS011;24083;55.670;37.568;2022-09-09T18:48:30;6.38;;;2.58;;
22094;SDS011;24083;55.670;37.568;2022-09-09T18:51:04;6.50;;;2.50;;
22094;SDS011;24083;55.670;37.568;2022-09-09T18:59:40;6.68;;;2.70;;
22094;SDS011;24083;55.670;37.568;2022-09-09T19:02:06;9.00;;;2.75;;
22094;SDS011;24083;55.670;37.568;2022-09-09T19:04:37;5.35;;;2.50;;
22094;SDS011;24083;55.670;37.568;2022-09-09T19:07:08;10.50;;;2.78;;
22094;SDS011;24083;55.670;37.568;2022-09-09T19:09:37;7.35;;;2.80;;
22094;SDS011;24083;55.670;37.568;2022-09-09T19:12:06;9.18;;;2.97;;
22094;SDS011;24083;55.670;37.568;2022-09-09T19:14:38;8.38;;;2.80;;
22094;SDS011;24083;55.670;37.568;2022-09-09T19:17:19;5.10;;;2.70;;
22094;SDS011;24083;55.670;37.568;2022-09-09T19:19:49;6.45;;;2.78;;
22094;SDS011;24083;55.670;37.568;2022-09-09T19:22:28;6.18;;;2.55;;
22094;SDS011;24083;55.670;37.568;2022-09-09T19:24:56;7.13;;;2.72;;
22094;SDS011;24083;55.670;37.568;2022-09-09T19:27:27;5.47;;;2.30;;
22094;SDS011;24083;55.670;37.568;2022-09-09T19:30:08;6.90;;;2.65;;
22094;SDS011;24083;55.670;37.568;2022-09-09T19:32:51;5.45;;;2.13;;
22094;SDS011;24083;55.670;37.568;2022-09-09T19:35:19;8.65;;;2.47;;
22094;SDS011;24083;55.670;37.568;2022-09-09T19:41:28;5.32;;;1.90;;
22094;SDS011;24083;55.670;37.568;2022-09-09T19:43:58;6.05;;;2.67;;
22094;SDS011;24083;55.670;37.568;2022-09-09T19:46:34;6.47;;;2.88;;
22094;SDS011;24083;55.670;37.568;2022-09-09T19:49:07;8.25;;;2.63;;
22094;SDS011;24083;55.670;37.568;2022-09-09T19:57:19;6.45;;;2.20;;
22094;SDS011;24083;55.670;37.568;2022-09-09T19:59:53;14.25;;;2.20;;
22094;SDS011;24083;55.670;37.568;2022-09-09T20:02:20;10.23;;;2.60;;
22094;SDS011;24083;55.670;37.568;2022-09-09T20:04:52;5.85;;;2.03;;
22094;SDS011;24083;55.670;37.568;2022-09-09T20:07:19;5.28;;;2.65;;
22094;SDS011;24083;55.670;37.568;2022-09-09T20:09:45;8.35;;;2.20;;
22094;SDS011;24083;55.670;37.568;2022-09-09T20:12:12;8.95;;;2.08;;
22094;SDS011;24083;55.670;37.568;2022-09-09T20:14:39;9.70;;;2.60;;
22094;SDS011;24083;55.670;37.568;2022-09-09T20:17:05;7.13;;;3.10;;
22094;SDS011;24083;55.670;37.568;2022-09-09T20:25:30;5.95;;;3.25;;
22094;SDS011;24083;55.670;37.568;2022-09-09T20:30:48;7.65;;;3.10;;
22094;SDS011;24083;55.670;37.568;2022-09-09T20:33:31;6.55;;;2.92;;
22094;SDS011;24083;55.670;37.568;2022-09-09T20:38:53;10.30;;;2.70;;
22094;SDS011;24083;55.670;37.568;2022-09-09T20:43:56;6.55;;;2.55;;
22094;SDS011;24083;55.670;37.568;2022-09-09T20:46:32;6.82;;;2.60;;
22094;SDS011;24083;55.670;37.568;2022-09-09T20:49:06;6.60;;;2.40;;
22094;SDS011;24083;55.670;37.568;2022-09-09T20:51:35;12.13;;;2.58;;
22094;SDS011;24083;55.670;37.568;2022-09-09T21:03:56;6.70;;;2.50;;
22094;SDS011;24083;55.670;37.568;2022-09-09T21:06:26;8.43;;;3.17;;
22094;SDS011;24083;55.670;37.568;2022-09-09T21:08:52;9.60;;;3.05;;
22094;SDS011;24083;55.670;37.568;2022-09-09T21:15:08;6.57;;;2.70;;
22094;SDS011;24083;55.670;37.568;2022-09-09T21:17:39;7.75;;;2.60;;
22094;SDS011;24083;55.670;37.568;2022-09-09T21:22:54;8.35;;;2.80;;
22094;SDS011;24083;55.670;37.568;2022-09-09T21:28:19;13.55;;;3.10;;
22094;SDS011;24083;55.670;37.568;2022-09-09T21:30:46;5.93;;;3.05;;
22094;SDS011;24083;55.670;37.568;2022-09-09T21:33:28;10.45;;;2.92;;
22094;SDS011;24083;55.670;37.568;2022-09-09T21:36:00;5.80;;;2.78;;
22094;SDS011;24083;55.670;37.568;2022-09-09T21:38:43;6.35;;;2.80;;
22094;SDS011;24083;55.670;37.568;2022-09-09T21:41:10;9.15;;;2.92;;
22094;SDS011;24083;55.670;37.568;2022-09-09T21:43:43;8.32;;;3.33;;
22094;SDS011;24083;55.670;37.568;2022-09-09T21:52:05;7.38;;;3.17;;
22094;SDS011;24083;55.670;37.568;2022-09-09T21:54:32;13.40;;;3.38;;
22094;SDS011;24083;55.670;37.568;2022-09-09T21:56:58;10.15;;;2.97;;
22094;SDS011;24083;55.670;37.568;2022-09-09T21:59:33;7.93;;;3.08;;
22094;SDS011;24083;55.670;37.568;2022-09-09T22:08:20;12.45;;;3.40;;
22094;SDS011;24083;55.670;37.568;2022-09-09T22:10:50;8.52;;;3.25;;
22094;SDS011;24083;55.670;37.568;2022-09-09T22:13:20;9.75;;;3.30;;
22094;SDS011;24083;55.670;37.568;2022-09-09T22:15:50;11.18;;;3.30;;
22094;SDS011;24083;55.670;37.568;2022-09-09T22:21:23;10.35;;;3.45;;
22094;SDS011;24083;55.670;37.568;2022-09-09T22:23:50;9.68;;;3.28;;
22094;SDS011;24083;55.670;37.568;2022-09-09T22:26:17;9.33;;;3.47;;
22094;SDS011;24083;55.670;37.568;2022-09-09T22:28:53;9.70;;;3.63;;
22094;SDS011;24083;55.670;37.568;2022-09-09T22:31:21;5.45;;;3.20;;
22094;SDS011;24083;55.670;37.568;2022-09-09T22:33:49;10.00;;;3.40;;
22094;SDS011;24083;55.670;37.568;2022-09-09T22:36:21;7.88;;;3.20;;
22094;SDS011;24083;55.670;37.568;2022-09-09T22:38:50;7.18;;;3.05;;
22094;SDS011;24083;55.670;37.568;2022-09-09T22:41:17;4.88;;;2.60;;
22094;SDS011;24083;55.670;37.568;2022-09-09T22:46:16;5.78;;;3.00;;
22094;SDS011;24083;55.670;37.568;2022-09-09T22:48:53;6.88;;;3.00;;
22094;SDS011;24083;55.670;37.568;2022-09-09T22:54:11;8.07;;;3.00;;
22094;SDS011;24083;55.670;37.568;2022-09-09T22:56:41;7.07;;;3.53;;
22094;SDS011;24083;55.670;37.568;2022-09-09T22:59:09;15.13;;;4.32;;
22094;SDS011;24083;55.670;37.568;2022-09-09T23:01:35;9.13;;;4.10;;
22094;SDS011;24083;55.670;37.568;2022-09-09T23:09:50;10.30;;;3.47;;
22094;SDS011;24083;55.670;37.568;2022-09-09T23:12:51;7.50;;;3.63;;
22094;SDS011;24083;55.670;37.568;2022-09-09T23:15:46;6.63;;;4.00;;
22094;SDS011;24083;55.670;37.568;2022-09-09T23:18:15;7.07;;;3.55;;
22094;SDS011;24083;55.670;37.568;2022-09-09T23:20:40;10.88;;;3.78;;
22094;SDS011;24083;55.670;37.568;2022-09-09T23:23:12;6.95;;;3.60;;
22094;SDS011;24083;55.670;37.568;2022-09-09T23:25:39;7.10;;;3.53;;
22094;SDS011;24083;55.670;37.568;2022-09-09T23:28:07;9.30;;;4.07;;
22094;SDS011;24083;55.670;37.568;2022-09-09T23:30:34;7.28;;;3.33;;
22094;SDS011;24083;55.670;37.568;2022-09-09T23:33:02;6.40;;;3.70;;
22094;SDS011;24083;55.670;37.568;2022-09-09T23:38:20;8.60;;;4.00;;
22094;SDS011;24083;55.670;37.568;2022-09-09T23:44:30;9.90;;;4.80;;
22094;SDS011;24083;55.670;37.568;2022-09-09T23:47:01;12.10;;;5.40;;
22094;SDS011;24083;55.670;37.568;2022-09-09T23:49:31;16.25;;;5.78;;
22094;SDS011;24083;55.670;37.568;2022-09-09T23:52:05;11.98;;;7.30;;
22094;SDS011;24083;55.670;37.568;2022-09-09T23:54:34;13.18;;;6.78;;
22094;SDS011;24083;55.670;37.568;2022-09-09T23:57:00;11.93;;;5.78;;
